createdAt,value
2022-12-01T00:01:35.256Z,3.63
2022-12-01T00:04:03.221Z,3.45
2022-12-01T00:06:31.672Z,3.40
2022-12-01T00:09:20.232Z,3.56
2022-12-01T00:11:48.936Z,3.51
2022-12-01T00:14:17.006Z,3.42
2022-12-01T00:16:45.144Z,3.46
2022-12-01T00:19:13.328Z,3.20
2022-12-01T00:21:41.206Z,3.26
2022-12-01T00:24:10.662Z,3.35
2022-12-01T00:26:39.054Z,3.26
2022-12-01T00:29:07.113Z,3.32
2022-12-01T00:31:35.140Z,3.23
2022-12-01T00:34:06.924Z,3.27
2022-12-01T00:36:39.750Z,3.22
2022-12-01T00:39:08.513Z,3.35
2022-12-01T00:41:36.436Z,3.42
2022-12-01T00:44:04.689Z,3.11
2022-12-01T00:46:32.691Z,3.16
2022-12-01T00:49:00.694Z,3.06
2022-12-01T00:51:28.565Z,3.22
2022-12-01T00:53:56.534Z,3.21
2022-12-01T00:56:24.546Z,3.12
2022-12-01T00:58:52.443Z,2.93
2022-12-01T01:01:20.477Z,2.93
2022-12-01T01:03:48.416Z,3.10
2022-12-01T01:06:16.611Z,3.12
2022-12-01T01:08:46.427Z,3.17
2022-12-01T01:11:14.479Z,3.04
2022-12-01T01:13:42.335Z,3.11
2022-12-01T01:16:15.394Z,3.07
2022-12-01T01:18:43.456Z,2.96
2022-12-01T01:21:14.097Z,2.98
2022-12-01T01:23:42.269Z,2.98
2022-12-01T01:26:21.691Z,2.92
2022-12-01T01:28:50.586Z,2.91
2022-12-01T01:31:21.490Z,2.94
2022-12-01T01:33:51.091Z,2.88
2022-12-01T01:36:19.815Z,2.88
2022-12-01T01:38:48.273Z,2.67
2022-12-01T01:41:16.846Z,2.75
2022-12-01T01:43:53.992Z,2.67
2022-12-01T01:46:28.132Z,2.62
2022-12-01T01:49:07.911Z,2.61
2022-12-01T01:51:45.537Z,2.51
2022-12-01T01:54:27.294Z,2.66
2022-12-01T01:56:57.834Z,2.65
2022-12-01T01:59:31.307Z,2.62
2022-12-01T02:02:08.576Z,2.51
2022-12-01T02:04:40.373Z,2.64
2022-12-01T02:07:09.388Z,2.72
2022-12-01T02:09:37.337Z,2.65
2022-12-01T02:12:24.439Z,2.76
2022-12-01T02:14:55.230Z,2.70
2022-12-01T02:17:30.703Z,2.71
2022-12-01T02:20:10.404Z,2.60
2022-12-01T02:22:55.348Z,2.58
2022-12-01T02:25:47.393Z,2.67
2022-12-01T02:28:48.396Z,2.57
2022-12-01T02:31:50.732Z,2.41
2022-12-01T02:34:46.913Z,2.53
2022-12-01T02:37:24.296Z,2.22
2022-12-01T02:40:02.052Z,2.39
2022-12-01T02:43:02.256Z,2.33
2022-12-01T02:45:42.320Z,2.41
2022-12-01T02:48:16.889Z,2.56
2022-12-01T02:50:46.786Z,2.62
2022-12-01T02:53:18.514Z,2.66
2022-12-01T02:55:52.739Z,2.66
2022-12-01T02:58:22.116Z,2.61
2022-12-01T03:01:24.627Z,2.68
2022-12-01T03:04:01.785Z,2.49
2022-12-01T03:07:05.266Z,2.51
2022-12-01T03:09:56.938Z,2.34
2022-12-01T03:12:49.244Z,2.37
2022-12-01T03:15:31.484Z,2.24
2022-12-01T03:18:08.429Z,2.24
2022-12-01T03:20:55.101Z,2.43
2022-12-01T03:23:28.109Z,2.34
2022-12-01T03:25:59.829Z,2.24
2022-12-01T03:28:35.865Z,2.14
2022-12-01T03:31:09.321Z,2.24
2022-12-01T03:33:44.642Z,2.12
2022-12-01T03:36:29.387Z,2.09
2022-12-01T03:39:04.818Z,2.11
2022-12-01T03:41:42.700Z,2.19
2022-12-01T03:44:21.626Z,2.10
2022-12-01T03:47:20.831Z,2.19
2022-12-01T03:49:51.919Z,2.31
2022-12-01T03:52:31.986Z,2.36
2022-12-01T03:55:14.451Z,2.27
2022-12-01T03:57:44.975Z,2.22
2022-12-01T04:00:14.804Z,2.11
2022-12-01T04:02:44.826Z,2.19
2022-12-01T04:05:13.522Z,2.31
2022-12-01T04:07:41.476Z,2.34
2022-12-01T04:10:09.625Z,2.29
2022-12-01T04:12:37.646Z,2.17
2022-12-01T04:15:12.526Z,2.18
2022-12-01T04:17:45.105Z,2.08
2022-12-01T04:20:14.985Z,2.20
2022-12-01T04:22:42.863Z,2.18
2022-12-01T04:25:11.715Z,2.29
2022-12-01T04:27:39.887Z,2.31
2022-12-01T04:30:08.677Z,2.43
2022-12-01T04:32:41.245Z,2.47
2022-12-01T04:35:11.735Z,2.50
2022-12-01T04:37:40.062Z,2.49
2022-12-01T04:40:08.982Z,2.34
2022-12-01T04:42:37.356Z,2.50
2022-12-01T04:45:06.085Z,2.43
2022-12-01T04:47:34.057Z,2.46
2022-12-01T04:50:01.964Z,2.45
2022-12-01T04:52:35.012Z,2.40
2022-12-01T04:55:04.052Z,2.41
2022-12-01T04:57:31.948Z,2.34
2022-12-01T04:59:59.879Z,2.56
2022-12-01T05:02:27.883Z,2.32
2022-12-01T05:04:55.841Z,2.39
2022-12-01T05:07:23.796Z,2.34
2022-12-01T05:09:52.477Z,2.51
2022-12-01T05:12:20.476Z,2.66
2022-12-01T05:14:48.606Z,2.66
2022-12-01T05:17:16.542Z,2.83
2022-12-01T05:20:03.347Z,2.84
2022-12-01T05:22:57.261Z,2.97
2022-12-01T05:25:19.556Z,3.02
2022-12-01T05:27:47.482Z,3.03
2022-12-01T05:30:15.432Z,3.12
2022-12-01T05:32:44.444Z,3.11
2022-12-01T05:35:12.818Z,3.23
2022-12-01T05:37:40.789Z,3.16
2022-12-01T05:40:09.790Z,3.36
2022-12-01T05:42:37.914Z,3.24
2022-12-01T05:45:06.444Z,3.29
2022-12-01T05:47:34.346Z,3.17
2022-12-01T05:50:05.812Z,3.29
2022-12-01T05:52:35.304Z,3.24
2022-12-01T05:55:05.117Z,3.32
2022-12-01T05:57:33.474Z,3.39
2022-12-01T06:00:01.544Z,3.35
2022-12-01T06:02:42.946Z,3.30
2022-12-01T06:05:11.029Z,3.33
2022-12-01T06:07:40.405Z,3.34
2022-12-01T06:10:09.604Z,3.17
2022-12-01T06:12:38.110Z,3.07
2022-12-01T06:15:07.526Z,3.17
2022-12-01T06:17:39.895Z,3.26
2022-12-01T06:20:08.897Z,3.21
2022-12-01T06:22:37.009Z,3.14
2022-12-01T06:25:05.397Z,3.21
2022-12-01T06:27:33.300Z,3.02
2022-12-01T06:30:01.275Z,3.11
2022-12-01T06:32:29.193Z,3.03
2022-12-01T06:34:57.112Z,3.18
2022-12-01T06:37:25.093Z,3.18
2022-12-01T06:39:53.132Z,3.21
2022-12-01T06:42:21.068Z,3.27
2022-12-01T06:44:49.185Z,3.21
2022-12-01T06:47:17.255Z,3.33
2022-12-01T06:49:45.525Z,3.28
2022-12-01T06:52:13.413Z,3.29
2022-12-01T06:54:41.295Z,3.05
2022-12-01T06:57:09.535Z,3.34
2022-12-01T06:59:37.660Z,3.46
2022-12-01T07:02:05.660Z,3.37
2022-12-01T07:04:33.605Z,3.41
2022-12-01T07:07:01.523Z,3.47
2022-12-01T07:09:29.402Z,3.47
2022-12-01T07:11:57.277Z,3.54
2022-12-01T07:14:26.951Z,3.49
2022-12-01T07:16:55.075Z,3.55
2022-12-01T07:19:23.088Z,3.30
2022-12-01T07:21:51.150Z,3.66
2022-12-01T07:24:19.005Z,3.58
2022-12-01T07:26:48.023Z,3.66
2022-12-01T07:29:15.913Z,3.76
2022-12-01T07:31:44.186Z,3.64
2022-12-01T07:34:15.423Z,3.60
2022-12-01T07:36:43.315Z,3.65
2022-12-01T07:39:11.296Z,3.68
2022-12-01T07:41:39.280Z,3.75
2022-12-01T07:44:09.082Z,3.87
2022-12-01T07:46:37.583Z,3.87
2022-12-01T07:49:07.433Z,3.75
2022-12-01T07:51:35.345Z,3.78
2022-12-01T07:54:05.307Z,3.75
2022-12-01T07:56:33.974Z,3.80
2022-12-01T07:59:01.906Z,3.88
2022-12-01T08:01:29.943Z,3.99
2022-12-01T08:03:59.161Z,3.99
2022-12-01T08:06:27.550Z,4.03
2022-12-01T08:08:56.101Z,4.02
2022-12-01T08:11:26.762Z,3.86
2022-12-01T08:13:54.741Z,3.96
2022-12-01T08:16:24.600Z,4.05
2022-12-01T08:18:52.741Z,4.01
2022-12-01T08:21:23.013Z,3.85
2022-12-01T08:23:54.670Z,3.87
2022-12-01T08:26:24.231Z,3.77
2022-12-01T08:28:52.158Z,3.86
2022-12-01T08:31:32.045Z,3.71
2022-12-01T08:34:00.034Z,3.71
2022-12-01T08:36:27.993Z,3.84
2022-12-01T08:38:56.477Z,3.88
2022-12-01T08:41:25.278Z,3.71
2022-12-01T08:43:58.421Z,3.86
2022-12-01T08:46:36.301Z,3.96
2022-12-01T08:49:05.753Z,3.68
2022-12-01T08:51:33.955Z,3.94
2022-12-01T08:54:02.427Z,3.98
2022-12-01T08:56:36.828Z,4.03
2022-12-01T08:59:05.202Z,4.14
2022-12-01T09:01:33.337Z,4.23
2022-12-01T09:04:05.875Z,4.32
2022-12-01T09:06:45.842Z,4.37
2022-12-01T09:09:17.600Z,4.28
2022-12-01T09:11:47.043Z,4.41
2022-12-01T09:14:16.326Z,4.60
2022-12-01T09:16:47.792Z,4.73
2022-12-01T09:19:23.668Z,4.64
2022-12-01T09:21:53.342Z,4.63
2022-12-01T09:24:21.408Z,4.32
2022-12-01T09:26:49.541Z,4.32
2022-12-01T09:29:17.551Z,4.36
2022-12-01T09:31:45.454Z,4.48
2022-12-01T09:34:17.535Z,4.57
2022-12-01T09:36:46.810Z,4.57
2022-12-01T09:39:17.625Z,4.56
2022-12-01T09:41:45.532Z,4.59
2022-12-01T09:44:30.452Z,4.52
2022-12-01T09:47:20.236Z,4.80
2022-12-01T09:50:07.446Z,4.64
2022-12-01T09:52:48.178Z,4.85
2022-12-01T09:55:18.974Z,4.58
2022-12-01T09:57:53.750Z,4.57
2022-12-01T10:00:24.358Z,4.70
2022-12-01T10:03:13.578Z,4.71
2022-12-01T10:06:18.415Z,4.67
2022-12-01T10:08:44.175Z,4.63
2022-12-01T10:11:24.381Z,4.51
2022-12-01T10:13:52.461Z,4.52
2022-12-01T10:16:29.947Z,4.58
2022-12-01T10:19:27.006Z,4.31
2022-12-01T10:22:09.298Z,4.71
2022-12-01T10:24:50.624Z,4.57
2022-12-01T10:27:58.207Z,4.69
2022-12-01T10:30:26.304Z,4.79
2022-12-01T10:32:58.201Z,4.67
2022-12-01T10:35:29.351Z,4.74
2022-12-01T10:38:01.459Z,4.78
2022-12-01T10:40:34.563Z,4.97
2022-12-01T10:43:03.511Z,4.97
2022-12-01T10:45:37.302Z,4.85
2022-12-01T10:48:20.768Z,5.05
2022-12-01T10:50:57.700Z,4.54
2022-12-01T10:53:33.611Z,4.90
2022-12-01T10:56:19.576Z,4.97
2022-12-01T10:58:49.780Z,4.78
2022-12-01T11:01:25.185Z,4.80
2022-12-01T11:04:01.609Z,4.76
2022-12-01T11:06:31.166Z,4.57
2022-12-01T11:09:03.892Z,4.59
2022-12-01T11:11:40.094Z,4.65
2022-12-01T11:14:47.620Z,4.69
2022-12-01T11:17:27.294Z,4.86
2022-12-01T11:19:55.588Z,4.96
2022-12-01T11:22:30.532Z,4.72
2022-12-01T11:25:00.821Z,4.99
2022-12-01T11:27:32.955Z,4.94
2022-12-01T11:30:24.590Z,5.07
2022-12-01T11:33:01.814Z,5.20
2022-12-01T11:35:38.878Z,5.25
2022-12-01T11:38:29.446Z,5.18
2022-12-01T11:40:57.721Z,5.22
2022-12-01T11:43:32.643Z,5.06
2022-12-01T11:46:05.473Z,5.27
2022-12-01T11:48:36.405Z,5.40
2022-12-01T11:51:27.662Z,5.33
2022-12-01T11:54:22.566Z,5.26
2022-12-01T11:57:17.345Z,5.14
2022-12-01T11:59:40.721Z,5.40
2022-12-01T12:02:37.679Z,4.99
2022-12-01T12:05:26.631Z,5.11
2022-12-01T12:08:16.479Z,5.08
2022-12-01T12:10:53.827Z,5.34
2022-12-01T12:13:48.742Z,5.17
2022-12-01T12:16:19.986Z,4.88
2022-12-01T12:19:06.543Z,5.04
2022-12-01T12:21:42.636Z,5.25
2022-12-01T12:24:47.784Z,5.16
2022-12-01T12:27:24.570Z,4.95
2022-12-01T12:30:15.451Z,5.20
2022-12-01T12:33:22.244Z,5.16
2022-12-01T12:35:53.479Z,4.94
2022-12-01T12:38:56.425Z,4.73
2022-12-01T12:41:34.459Z,5.08
2022-12-01T12:44:36.615Z,4.92
2022-12-01T12:47:19.874Z,4.79
2022-12-01T12:50:09.633Z,4.86
2022-12-01T12:52:42.383Z,5.06
2022-12-01T12:55:19.235Z,4.96
2022-12-01T12:57:53.262Z,4.70
2022-12-01T13:00:25.294Z,4.81
2022-12-01T13:02:57.457Z,4.71
2022-12-01T13:05:44.886Z,4.79
2022-12-01T13:08:23.533Z,4.96
2022-12-01T13:11:04.960Z,4.98
2022-12-01T13:13:57.381Z,4.93
2022-12-01T13:16:36.546Z,4.85
2022-12-01T13:19:25.229Z,4.95
2022-12-01T13:21:54.104Z,4.86
2022-12-01T13:24:24.898Z,4.91
2022-12-01T13:26:59.979Z,5.04
2022-12-01T13:29:38.396Z,4.83
2022-12-01T13:32:29.769Z,4.76
2022-12-01T13:34:59.431Z,4.90
2022-12-01T13:37:30.671Z,5.14
2022-12-01T13:40:31.102Z,5.20
2022-12-01T13:43:10.319Z,5.13
2022-12-01T13:45:40.890Z,5.10
2022-12-01T13:48:49.652Z,4.95
2022-12-01T13:51:17.725Z,5.03
2022-12-01T13:54:06.385Z,4.87
2022-12-01T13:56:39.404Z,4.95
2022-12-01T13:59:42.113Z,4.94
2022-12-01T14:02:18.442Z,4.81
2022-12-01T14:04:47.153Z,4.88
2022-12-01T14:07:21.091Z,5.00
2022-12-01T14:09:56.528Z,4.96
2022-12-01T14:12:30.237Z,4.73
2022-12-01T14:15:04.761Z,4.78
2022-12-01T14:17:35.241Z,4.48
2022-12-01T14:20:19.268Z,4.73
2022-12-01T14:23:09.556Z,4.76
2022-12-01T14:25:39.691Z,4.75
2022-12-01T14:28:18.962Z,4.72
2022-12-01T14:30:50.356Z,4.60
2022-12-01T14:33:39.780Z,4.70
2022-12-01T14:36:17.351Z,4.47
2022-12-01T14:38:47.271Z,4.70
2022-12-01T14:41:30.811Z,4.74
2022-12-01T14:44:12.796Z,4.54
2022-12-01T14:46:50.411Z,4.63
2022-12-01T14:49:24.278Z,4.66
2022-12-01T14:52:02.941Z,4.56
2022-12-01T14:54:43.331Z,4.76
2022-12-01T14:57:16.868Z,4.53
2022-12-01T14:59:45.323Z,4.42
2022-12-01T15:02:14.044Z,4.50
2022-12-01T15:05:07.949Z,4.60
2022-12-01T15:07:40.771Z,4.34
2022-12-01T15:10:19.942Z,4.43
2022-12-01T15:12:49.194Z,4.48
2022-12-01T15:15:23.673Z,4.40
2022-12-01T15:17:55.502Z,4.48
2022-12-01T15:20:37.717Z,4.46
2022-12-01T15:23:14.726Z,4.54
2022-12-01T15:25:45.462Z,4.33
2022-12-01T15:28:16.485Z,4.43
2022-12-01T15:30:48.532Z,4.53
2022-12-01T15:33:27.006Z,4.38
2022-12-01T15:35:57.135Z,4.31
2022-12-01T15:38:37.086Z,4.43
2022-12-01T15:43:58.967Z,4.39
2022-12-01T15:46:32.541Z,4.30
2022-12-01T15:49:09.036Z,4.25
2022-12-01T15:51:37.390Z,4.26
2022-12-01T15:54:05.522Z,4.27
2022-12-01T15:56:39.444Z,4.12
2022-12-01T15:59:13.344Z,4.11
2022-12-01T16:01:44.011Z,4.18
2022-12-01T16:04:20.274Z,4.16
2022-12-01T16:06:57.200Z,3.99
2022-12-01T16:09:39.719Z,3.90
2022-12-01T16:12:16.818Z,4.06
2022-12-01T16:14:59.811Z,3.96
2022-12-01T16:17:40.946Z,4.12
2022-12-01T16:20:31.855Z,3.98
2022-12-01T16:23:10.289Z,3.94
2022-12-01T16:25:44.278Z,4.05
2022-12-01T16:28:24.428Z,4.00
2022-12-01T16:30:52.999Z,3.92
2022-12-01T16:33:24.072Z,3.96
2022-12-01T16:35:52.718Z,3.87
2022-12-01T16:38:25.160Z,3.99
2022-12-01T16:40:55.871Z,3.98
2022-12-01T16:43:26.506Z,3.82
2022-12-01T16:46:03.578Z,3.71
2022-12-01T16:48:31.661Z,3.77
2022-12-01T16:51:03.594Z,3.62
2022-12-01T16:53:31.706Z,3.91
2022-12-01T16:56:01.882Z,3.86
2022-12-01T16:58:30.246Z,3.82
2022-12-01T17:00:58.785Z,3.81
2022-12-01T17:03:28.494Z,3.74
2022-12-01T17:05:59.829Z,3.87
2022-12-01T17:08:28.493Z,3.58
2022-12-01T17:10:56.936Z,3.94
2022-12-01T17:13:24.845Z,3.84
2022-12-01T17:15:54.973Z,3.77
2022-12-01T17:18:24.185Z,3.70
2022-12-01T17:20:59.568Z,3.80
2022-12-01T17:23:28.274Z,3.72
2022-12-01T17:25:56.138Z,3.81
2022-12-01T17:28:24.021Z,3.73
2022-12-01T17:30:51.976Z,3.72
2022-12-01T17:33:19.976Z,3.79
2022-12-01T17:35:49.877Z,3.71
2022-12-01T17:38:17.817Z,3.63
2022-12-01T17:40:45.717Z,3.68
2022-12-01T17:43:13.698Z,3.70
2022-12-01T17:45:42.901Z,3.66
2022-12-01T17:48:11.024Z,3.61
2022-12-01T17:50:38.933Z,3.37
2022-12-01T17:53:06.808Z,3.28
2022-12-01T17:55:34.681Z,3.41
2022-12-01T17:58:03.804Z,3.59
2022-12-01T18:00:32.358Z,3.48
2022-12-01T18:03:00.361Z,3.54
2022-12-01T18:05:29.479Z,3.53
2022-12-01T18:07:57.445Z,3.55
2022-12-01T18:10:25.339Z,3.56
2022-12-01T18:12:53.211Z,3.44
2022-12-01T18:15:21.131Z,3.39
2022-12-01T18:17:49.152Z,3.33
2022-12-01T18:20:17.086Z,3.55
2022-12-01T18:22:45.401Z,3.58
2022-12-01T18:25:13.425Z,3.40
2022-12-01T18:27:41.341Z,3.51
2022-12-01T18:30:09.860Z,3.52
2022-12-01T18:32:37.988Z,3.41
2022-12-01T18:35:06.462Z,3.41
2022-12-01T18:37:36.542Z,3.50
2022-12-01T18:40:04.956Z,3.66
2022-12-01T18:42:33.023Z,3.58
2022-12-01T18:45:00.901Z,3.52
2022-12-01T18:47:29.394Z,3.56
2022-12-01T18:49:57.292Z,3.54
2022-12-01T18:52:25.294Z,3.50
2022-12-01T18:54:54.366Z,3.44
2022-12-01T18:57:22.294Z,3.35
2022-12-01T18:59:50.847Z,3.48
2022-12-01T19:02:20.336Z,3.55
2022-12-01T19:04:50.170Z,3.43
2022-12-01T19:07:18.846Z,3.38
2022-12-01T19:09:46.837Z,3.36
2022-12-01T19:12:14.916Z,3.53
2022-12-01T19:14:42.874Z,3.47
2022-12-01T19:17:10.781Z,3.44
2022-12-01T19:19:39.350Z,3.38
2022-12-01T19:22:07.357Z,3.41
2022-12-01T19:24:35.720Z,3.42
2022-12-01T19:27:04.422Z,3.56
2022-12-01T19:29:32.510Z,3.34
2022-12-01T19:32:01.693Z,3.23
2022-12-01T19:34:29.697Z,3.41
2022-12-01T19:36:57.875Z,3.40
2022-12-01T19:39:25.790Z,3.36
2022-12-01T19:41:53.741Z,3.49
2022-12-01T19:44:22.447Z,3.44
2022-12-01T19:46:50.450Z,3.44
2022-12-01T19:49:18.301Z,3.53
2022-12-01T19:51:46.498Z,3.32
2022-12-01T19:54:17.930Z,3.46
2022-12-01T19:56:47.132Z,3.37
2022-12-01T19:59:15.305Z,3.34
2022-12-01T20:01:43.359Z,3.51
2022-12-01T20:04:11.832Z,3.57
2022-12-01T20:06:39.804Z,3.41
2022-12-01T20:09:08.402Z,3.42
2022-12-01T20:11:36.913Z,3.38
2022-12-01T20:14:07.618Z,3.39
2022-12-01T20:16:35.875Z,3.30
2022-12-01T20:19:05.607Z,3.46
2022-12-01T20:21:35.618Z,3.40
2022-12-01T20:24:08.305Z,3.36
2022-12-01T20:26:43.077Z,3.37
2022-12-01T20:29:25.469Z,3.38
2022-12-01T20:31:55.546Z,3.38
2022-12-01T20:34:27.353Z,3.39
2022-12-01T20:36:56.323Z,3.45
2022-12-01T20:39:25.360Z,3.49
2022-12-01T20:41:53.293Z,3.27
2022-12-01T20:44:21.682Z,3.40
2022-12-01T20:46:49.588Z,3.52
2022-12-01T20:49:18.848Z,3.52
2022-12-01T20:51:47.122Z,3.53
2022-12-01T20:54:32.735Z,3.51
2022-12-01T20:57:00.722Z,3.40
2022-12-01T20:59:29.015Z,3.55
2022-12-01T21:01:57.564Z,3.63
2022-12-01T21:04:26.875Z,3.43
2022-12-01T21:06:56.695Z,3.42
2022-12-01T21:09:26.012Z,3.50
2022-12-01T21:12:27.033Z,3.56
2022-12-01T21:15:13.600Z,3.49
2022-12-01T21:17:48.467Z,3.50
2022-12-01T21:20:42.922Z,3.53
2022-12-01T21:23:14.547Z,3.46
2022-12-01T21:25:43.635Z,3.46
2022-12-01T21:28:23.450Z,3.56
2022-12-01T21:31:00.411Z,3.51
2022-12-01T21:33:33.128Z,3.49
2022-12-01T21:36:18.188Z,3.49
2022-12-01T21:38:49.596Z,3.39
2022-12-01T21:41:28.906Z,3.39
2022-12-01T21:44:04.566Z,3.29
2022-12-01T21:46:32.679Z,3.38
2022-12-01T21:49:01.418Z,3.44
2022-12-01T21:51:30.822Z,3.54
2022-12-01T21:54:01.875Z,3.58
2022-12-01T21:56:31.670Z,3.41
2022-12-01T21:59:11.520Z,3.54
2022-12-01T22:01:40.481Z,3.49
2022-12-01T22:04:16.691Z,3.43
2022-12-01T22:06:49.235Z,3.34
2022-12-01T22:09:26.098Z,3.39
2022-12-01T22:12:11.210Z,3.45
2022-12-01T22:14:39.398Z,3.29
2022-12-01T22:17:07.179Z,3.48
2022-12-01T22:19:40.023Z,3.41
2022-12-01T22:22:10.899Z,3.42
2022-12-01T22:24:40.712Z,3.35
2022-12-01T22:27:25.195Z,3.42
2022-12-01T22:29:58.438Z,3.40
2022-12-01T22:32:44.637Z,3.42
2022-12-01T22:35:19.264Z,3.24
2022-12-01T22:37:50.786Z,3.30
2022-12-01T22:40:40.131Z,3.41
2022-12-01T22:43:19.864Z,3.12
2022-12-01T22:46:00.157Z,3.29
2022-12-01T22:48:28.036Z,3.28
2022-12-01T22:51:21.399Z,3.20
2022-12-01T22:54:06.464Z,3.42
2022-12-01T22:56:36.702Z,3.32
2022-12-01T22:59:21.341Z,3.25
2022-12-01T23:01:58.931Z,2.94
2022-12-01T23:04:27.760Z,3.15
2022-12-01T23:07:00.318Z,3.15
2022-12-01T23:09:35.731Z,3.13
2022-12-01T23:12:12.762Z,3.25
2022-12-01T23:14:45.354Z,3.28
2022-12-01T23:17:18.508Z,3.13
2022-12-01T23:19:47.494Z,3.00
2022-12-01T23:22:16.724Z,3.17
2022-12-01T23:24:45.081Z,3.25
2022-12-01T23:27:16.489Z,3.27
2022-12-01T23:29:44.368Z,3.19
2022-12-01T23:32:12.647Z,3.10
2022-12-01T23:34:40.696Z,3.10
2022-12-01T23:37:34.926Z,3.09
2022-12-01T23:40:19.927Z,3.05
2022-12-01T23:42:48.726Z,3.07
2022-12-01T23:45:22.946Z,2.96
2022-12-01T23:47:53.325Z,2.93
2022-12-01T23:50:30.362Z,2.84
2022-12-01T23:52:58.213Z,2.87
2022-12-01T23:55:29.190Z,2.88
2022-12-01T23:57:58.890Z,3.02
